createdAt,value
2017-10-14T00:01:05.195Z,6.77
2017-10-14T00:03:34.148Z,7.33
2017-10-14T00:06:03.413Z,6.30
2017-10-14T00:08:32.617Z,7.37
2017-10-14T00:11:00.913Z,6.93
2017-10-14T00:13:29.242Z,6.20
2017-10-14T00:15:58.452Z,6.30
2017-10-14T00:18:27.656Z,7.43
2017-10-14T00:20:55.943Z,6.43
2017-10-14T00:23:25.009Z,5.70
2017-10-14T00:25:56.099Z,7.40
2017-10-14T00:28:24.433Z,7.83
2017-10-14T00:30:52.746Z,6.70
2017-10-14T00:33:21.089Z,7.73
2017-10-14T00:35:49.416Z,8.30
2017-10-14T00:38:17.807Z,8.33
2017-10-14T00:40:46.099Z,7.97
2017-10-14T00:43:14.455Z,7.53
2017-10-14T00:45:42.768Z,7.37
2017-10-14T00:48:11.095Z,7.50
2017-10-14T00:50:39.476Z,7.00
2017-10-14T00:53:08.569Z,5.87
2017-10-14T00:55:36.865Z,6.20
2017-10-14T00:58:08.423Z,6.43
2017-10-14T01:00:36.780Z,5.80
2017-10-14T01:03:06.051Z,6.17
2017-10-14T01:05:35.063Z,6.30
2017-10-14T01:08:03.379Z,6.93
2017-10-14T01:10:31.715Z,6.20
2017-10-14T01:13:00.090Z,7.97
2017-10-14T01:15:28.416Z,6.63
2017-10-14T01:17:57.851Z,6.43
2017-10-14T01:20:26.159Z,5.73
2017-10-14T01:22:54.479Z,6.50
2017-10-14T01:25:23.588Z,5.50
2017-10-14T01:27:53.511Z,5.50
2017-10-14T01:30:22.672Z,4.83
2017-10-14T01:32:51.133Z,5.77
2017-10-14T01:35:19.494Z,5.77
2017-10-14T01:37:47.827Z,5.93
2017-10-14T01:40:16.131Z,5.53
2017-10-14T01:42:44.435Z,5.50
2017-10-14T01:45:13.584Z,5.07
2017-10-14T01:47:41.915Z,6.00
2017-10-14T01:50:12.149Z,6.00
2017-10-14T01:52:41.238Z,4.50
2017-10-14T01:55:09.584Z,5.37
2017-10-14T01:57:39.739Z,4.93
2017-10-14T02:00:08.852Z,5.60
2017-10-14T02:02:37.913Z,5.17
2017-10-14T02:05:06.348Z,5.20
2017-10-14T02:07:34.659Z,5.13
2017-10-14T02:10:03.848Z,5.67
2017-10-14T02:12:32.168Z,5.43
2017-10-14T02:15:00.495Z,5.17
2017-10-14T02:17:28.920Z,5.40
2017-10-14T02:19:57.261Z,6.07
2017-10-14T02:22:25.561Z,5.60
2017-10-14T02:24:53.877Z,5.70
2017-10-14T02:27:23.123Z,6.40
2017-10-14T02:29:51.428Z,6.13
2017-10-14T02:32:20.524Z,6.13
2017-10-14T02:34:48.853Z,6.93
2017-10-14T02:37:17.968Z,5.50
2017-10-14T02:39:47.066Z,6.10
2017-10-14T02:42:18.392Z,6.30
2017-10-14T02:44:46.695Z,5.70
2017-10-14T02:47:15.087Z,6.10
2017-10-14T02:49:43.412Z,6.27
2017-10-14T02:52:11.746Z,6.03
2017-10-14T02:54:40.043Z,5.97
2017-10-14T02:57:08.343Z,5.60
2017-10-14T02:59:36.662Z,5.87
2017-10-14T03:02:04.951Z,5.80
2017-10-14T03:04:33.275Z,6.50
2017-10-14T03:07:01.725Z,6.43
2017-10-14T03:09:30.798Z,5.77
2017-10-14T03:11:59.869Z,5.70
2017-10-14T03:14:28.342Z,6.03
2017-10-14T03:16:56.652Z,6.67
2017-10-14T03:19:25.738Z,5.97
2017-10-14T03:21:55.651Z,5.60
2017-10-14T03:24:23.953Z,5.70
2017-10-14T03:26:53.481Z,5.63
2017-10-14T03:29:21.841Z,5.80
2017-10-14T03:31:50.978Z,5.97
2017-10-14T03:34:19.275Z,5.90
2017-10-14T03:36:47.596Z,6.30
2017-10-14T03:39:15.942Z,4.93
2017-10-14T03:41:45.767Z,5.80
2017-10-14T03:44:15.558Z,5.60
2017-10-14T03:46:52.048Z,5.73
2017-10-14T03:49:26.932Z,5.57
2017-10-14T03:51:56.114Z,6.37
2017-10-14T03:54:24.470Z,5.80
2017-10-14T03:56:52.792Z,5.53
2017-10-14T03:59:22.844Z,5.80
2017-10-14T04:01:51.973Z,6.30
2017-10-14T04:04:20.275Z,6.00
2017-10-14T04:06:48.590Z,6.63
2017-10-14T04:09:16.907Z,7.03
2017-10-14T04:11:45.232Z,6.30
2017-10-14T04:14:13.524Z,6.27
2017-10-14T04:16:41.825Z,6.30
2017-10-14T04:19:10.237Z,6.33
2017-10-14T04:21:38.588Z,5.90
2017-10-14T04:24:06.885Z,6.73
2017-10-14T04:26:35.990Z,5.67
2017-10-14T04:29:05.056Z,7.90
2017-10-14T04:31:33.370Z,7.30
2017-10-14T04:34:01.712Z,6.57
2017-10-14T04:36:30.024Z,6.77
2017-10-14T04:38:59.108Z,8.17
2017-10-14T04:41:28.951Z,7.50
2017-10-14T04:43:57.277Z,6.90
2017-10-14T04:46:26.410Z,6.83
2017-10-14T04:48:55.500Z,7.30
2017-10-14T04:51:23.956Z,6.80
2017-10-14T04:53:52.382Z,7.30
2017-10-14T04:56:20.757Z,8.50
2017-10-14T04:58:49.112Z,7.83
2017-10-14T05:01:22.230Z,8.20
2017-10-14T05:03:50.590Z,7.60
2017-10-14T05:06:20.621Z,7.77
2017-10-14T05:08:50.699Z,6.70
2017-10-14T05:11:19.976Z,7.27
2017-10-14T05:13:48.342Z,7.00
2017-10-14T05:16:17.405Z,6.00
2017-10-14T05:18:45.714Z,6.50
2017-10-14T05:21:14.006Z,6.40
2017-10-14T05:23:42.403Z,7.40
2017-10-14T05:26:10.716Z,7.17
2017-10-14T05:28:39.049Z,6.30
2017-10-14T05:31:07.376Z,7.53
2017-10-14T05:33:35.677Z,6.90
2017-10-14T05:36:04.081Z,7.33
2017-10-14T05:38:33.315Z,6.90
2017-10-14T05:41:02.406Z,6.87
2017-10-14T05:43:30.697Z,6.60
2017-10-14T05:45:59.053Z,7.13
2017-10-14T05:48:27.347Z,7.90
2017-10-14T05:50:55.681Z,7.60
2017-10-14T05:53:24.004Z,7.37
2017-10-14T05:55:52.333Z,7.30
2017-10-14T05:58:20.693Z,8.03
2017-10-14T06:00:49.763Z,7.37
2017-10-14T06:03:18.089Z,7.83
2017-10-14T06:05:46.424Z,7.90
2017-10-14T06:08:14.760Z,7.63
2017-10-14T06:10:43.075Z,7.00
2017-10-14T06:13:11.443Z,8.47
2017-10-14T06:15:39.760Z,6.93
2017-10-14T06:18:08.066Z,5.90
2017-10-14T06:20:36.446Z,6.80
2017-10-14T06:23:05.297Z,7.20
2017-10-14T06:25:33.668Z,6.33
2017-10-14T06:28:01.996Z,7.23
2017-10-14T06:30:30.319Z,7.00
2017-10-14T06:32:59.524Z,6.50
2017-10-14T06:35:27.870Z,5.63
2017-10-14T06:37:56.218Z,7.30
2017-10-14T06:40:24.546Z,7.10
2017-10-14T06:42:52.858Z,6.00
2017-10-14T06:45:21.988Z,6.30
2017-10-14T06:47:51.128Z,5.73
2017-10-14T06:50:19.714Z,6.10
2017-10-14T06:52:49.890Z,6.10
2017-10-14T06:55:18.230Z,7.43
2017-10-14T06:57:46.533Z,7.13
2017-10-14T07:00:14.849Z,6.40
2017-10-14T07:02:43.169Z,6.20
2017-10-14T07:05:11.555Z,6.17
2017-10-14T07:07:39.896Z,5.83
2017-10-14T07:10:08.249Z,6.13
2017-10-14T07:12:36.578Z,6.10
2017-10-14T07:15:07.427Z,5.13
2017-10-14T07:17:38.201Z,6.40
2017-10-14T07:20:07.308Z,6.30
2017-10-14T07:22:35.704Z,5.97
2017-10-14T07:25:04.051Z,6.03
2017-10-14T07:27:38.750Z,6.23
2017-10-14T07:30:07.100Z,6.23
2017-10-14T07:32:35.528Z,6.50
2017-10-14T07:35:03.933Z,6.63
2017-10-14T07:37:34.099Z,6.93
2017-10-14T07:40:02.544Z,7.00
2017-10-14T07:42:30.857Z,6.70
2017-10-14T07:44:59.749Z,5.43
2017-10-14T07:47:28.087Z,7.07
2017-10-14T07:49:56.396Z,6.83
2017-10-14T07:52:24.703Z,6.73
2017-10-14T07:54:53.057Z,6.27
2017-10-14T07:57:22.121Z,6.40
2017-10-14T07:59:52.812Z,7.03
2017-10-14T08:02:22.284Z,7.43
2017-10-14T08:04:53.481Z,6.37
2017-10-14T08:07:22.572Z,6.10
2017-10-14T08:09:51.077Z,6.40
2017-10-14T08:12:19.739Z,6.23
2017-10-14T08:14:48.154Z,6.17
2017-10-14T08:17:16.555Z,5.53
2017-10-14T08:19:45.650Z,5.40
2017-10-14T08:22:14.075Z,4.93
2017-10-14T08:24:43.498Z,4.90
2017-10-14T08:27:12.608Z,4.10
2017-10-14T08:29:40.972Z,3.50
2017-10-14T08:32:10.967Z,4.90
2017-10-14T08:34:39.546Z,4.67
2017-10-14T08:37:07.871Z,4.60
2017-10-14T08:39:36.202Z,3.80
2017-10-14T08:42:06.416Z,4.87
2017-10-14T08:44:34.831Z,5.30
2017-10-14T08:47:04.206Z,5.20
2017-10-14T08:49:32.530Z,4.70
2017-10-14T08:52:00.843Z,4.97
2017-10-14T08:54:29.186Z,5.77
2017-10-14T08:56:57.652Z,5.23
2017-10-14T08:59:26.012Z,4.73
2017-10-14T09:01:54.311Z,5.20
2017-10-14T09:04:22.649Z,4.60
2017-10-14T09:06:50.956Z,4.20
2017-10-14T09:09:19.254Z,4.60
2017-10-14T09:11:48.575Z,4.00
2017-10-14T09:14:17.743Z,3.83
2017-10-14T09:16:46.906Z,3.50
2017-10-14T09:19:15.309Z,4.07
2017-10-14T09:21:45.048Z,3.37
2017-10-14T09:24:17.282Z,3.40
2017-10-14T09:26:46.693Z,3.37
2017-10-14T09:29:17.856Z,3.40
2017-10-14T09:31:48.614Z,2.73
2017-10-14T09:34:19.341Z,4.53
2017-10-14T09:36:47.852Z,3.10
2017-10-14T09:39:16.628Z,2.90
2017-10-14T09:41:45.071Z,2.80
2017-10-14T09:44:16.628Z,3.10
2017-10-14T09:46:44.919Z,2.87
2017-10-14T09:49:13.223Z,3.20
2017-10-14T09:51:41.613Z,2.40
2017-10-14T09:54:13.916Z,2.97
2017-10-14T09:56:46.248Z,2.40
2017-10-14T09:59:16.881Z,2.63
2017-10-14T10:01:46.533Z,3.03
2017-10-14T10:04:16.952Z,2.80
2017-10-14T10:06:45.521Z,2.80
2017-10-14T10:09:14.711Z,3.03
2017-10-14T10:11:43.169Z,2.57
2017-10-14T10:14:11.563Z,3.67
2017-10-14T10:16:42.839Z,3.83
2017-10-14T10:19:11.159Z,2.50
2017-10-14T10:21:41.054Z,2.57
2017-10-14T10:24:12.705Z,3.17
2017-10-14T10:26:43.070Z,3.13
2017-10-14T10:29:14.777Z,3.43
2017-10-14T10:31:43.906Z,2.93
2017-10-14T10:34:12.248Z,3.00
2017-10-14T10:36:41.351Z,2.40
2017-10-14T10:39:09.676Z,2.83
2017-10-14T10:41:39.916Z,1.90
2017-10-14T10:44:11.171Z,2.00
2017-10-14T10:46:39.614Z,2.10
2017-10-14T10:49:07.966Z,2.10
2017-10-14T10:51:38.009Z,2.20
2017-10-14T10:54:06.413Z,1.90
2017-10-14T10:56:35.871Z,1.50
2017-10-14T10:59:04.209Z,2.23
2017-10-14T11:01:32.599Z,1.97
2017-10-14T11:04:04.741Z,2.43
2017-10-14T11:06:34.016Z,2.27
2017-10-14T11:09:05.598Z,2.40
2017-10-14T11:11:43.657Z,1.80
2017-10-14T11:14:12.022Z,1.70
2017-10-14T11:16:44.545Z,2.00
2017-10-14T11:19:13.745Z,2.30
2017-10-14T11:21:42.122Z,1.27
2017-10-14T11:24:11.418Z,1.53
2017-10-14T11:26:40.720Z,1.43
2017-10-14T11:29:09.019Z,2.37
2017-10-14T11:31:37.340Z,1.47
2017-10-14T11:34:06.479Z,2.40
2017-10-14T11:36:35.627Z,1.63
2017-10-14T11:39:05.201Z,1.90
2017-10-14T11:41:34.036Z,1.53
2017-10-14T11:44:05.569Z,1.80
2017-10-14T11:46:33.908Z,1.67
2017-10-14T11:49:03.116Z,1.43
2017-10-14T11:51:32.007Z,1.73
2017-10-14T11:54:04.990Z,1.97
2017-10-14T11:56:33.579Z,1.50
2017-10-14T11:59:01.896Z,1.60
2017-10-14T12:01:32.947Z,1.40
2017-10-14T12:04:07.582Z,1.47
2017-10-14T12:06:41.489Z,1.80
2017-10-14T12:09:11.190Z,1.50
2017-10-14T12:11:39.709Z,1.53
2017-10-14T12:14:12.863Z,2.03
2017-10-14T12:16:42.255Z,2.20
2017-10-14T12:19:10.583Z,1.90
2017-10-14T12:21:40.044Z,2.30
2017-10-14T12:24:12.707Z,1.67
2017-10-14T12:26:43.233Z,1.70
2017-10-14T12:29:13.469Z,3.30
2017-10-14T12:31:41.973Z,1.87
2017-10-14T12:34:16.111Z,1.43
2017-10-14T12:36:44.460Z,1.50
2017-10-14T12:39:12.864Z,12.80
2017-10-14T12:41:42.250Z,4.80
2017-10-14T12:44:10.686Z,7.17
2017-10-14T12:46:39.261Z,2.23
2017-10-14T12:49:08.917Z,1.60
2017-10-14T12:51:37.336Z,1.13
2017-10-14T12:54:05.734Z,1.40
2017-10-14T12:56:34.065Z,1.43
2017-10-14T12:59:05.260Z,1.40
2017-10-14T13:01:34.339Z,1.40
2017-10-14T13:04:06.426Z,1.73
2017-10-14T13:06:34.888Z,1.70
2017-10-14T13:09:04.970Z,1.53
2017-10-14T13:11:34.543Z,1.70
2017-10-14T13:14:02.985Z,1.70
2017-10-14T13:16:34.789Z,1.70
2017-10-14T13:19:03.161Z,1.90
2017-10-14T13:21:31.573Z,1.43
2017-10-14T13:23:59.924Z,1.73
2017-10-14T13:26:28.300Z,1.80
2017-10-14T13:28:57.808Z,1.90
2017-10-14T13:31:26.762Z,1.80
2017-10-14T13:33:55.122Z,1.60
2017-10-14T13:36:24.541Z,1.90
2017-10-14T13:38:54.696Z,1.77
2017-10-14T13:41:25.547Z,1.60
2017-10-14T13:43:53.893Z,1.60
2017-10-14T13:46:22.252Z,1.70
2017-10-14T13:48:50.563Z,1.50
2017-10-14T13:51:22.396Z,1.63
2017-10-14T13:53:50.753Z,2.00
2017-10-14T13:56:19.844Z,1.40
2017-10-14T13:58:48.154Z,1.80
2017-10-14T14:01:16.519Z,1.53
2017-10-14T14:03:46.438Z,2.20
2017-10-14T14:06:14.870Z,1.60
2017-10-14T14:08:43.979Z,2.30
2017-10-14T14:11:14.003Z,2.20
2017-10-14T14:13:44.821Z,2.30
2017-10-14T14:16:14.323Z,1.50
2017-10-14T14:18:48.444Z,1.90
2017-10-14T14:21:17.469Z,1.60
2017-10-14T14:23:46.080Z,1.90
2017-10-14T14:26:15.502Z,2.03
2017-10-14T14:28:44.659Z,1.63
2017-10-14T14:31:13.972Z,1.77
2017-10-14T14:33:46.854Z,1.80
2017-10-14T14:36:17.051Z,1.80
2017-10-14T14:38:45.787Z,1.73
2017-10-14T14:41:15.265Z,1.67
2017-10-14T14:43:43.735Z,1.87
2017-10-14T14:46:12.267Z,1.90
2017-10-14T14:48:44.037Z,1.77
2017-10-14T14:51:12.329Z,1.73
2017-10-14T14:53:41.509Z,1.63
2017-10-14T14:56:09.870Z,1.70
2017-10-14T14:58:39.736Z,2.27
2017-10-14T15:01:09.993Z,1.70
2017-10-14T15:03:39.106Z,1.37
2017-10-14T15:06:09.577Z,1.33
2017-10-14T15:08:41.043Z,2.13
2017-10-14T15:11:09.505Z,1.43
2017-10-14T15:16:18.372Z,1.33
2017-10-14T15:18:47.138Z,1.87
2017-10-14T15:21:15.513Z,2.23
2017-10-14T15:23:43.842Z,1.80
2017-10-14T15:26:13.301Z,2.10
2017-10-14T15:28:44.061Z,1.60
2017-10-14T15:31:21.526Z,2.00
2017-10-14T15:33:51.746Z,2.13
2017-10-14T15:36:20.155Z,2.20
2017-10-14T15:38:51.282Z,2.37
2017-10-14T15:41:20.409Z,2.10
2017-10-14T15:43:50.483Z,2.27
2017-10-14T15:46:18.855Z,2.53
2017-10-14T15:48:48.567Z,1.83
2017-10-14T15:51:17.048Z,1.67
2017-10-14T15:53:45.799Z,2.03
2017-10-14T15:56:14.728Z,1.80
2017-10-14T15:58:52.766Z,1.80
2017-10-14T16:01:28.697Z,2.40
2017-10-14T16:06:47.321Z,1.67
2017-10-14T16:09:18.768Z,1.90
2017-10-14T16:11:55.370Z,2.60
2017-10-14T16:14:34.414Z,1.80
2017-10-14T16:17:03.592Z,2.17
2017-10-14T16:19:32.717Z,2.03
2017-10-14T16:22:01.248Z,2.37
2017-10-14T16:24:29.651Z,2.07
2017-10-14T16:26:58.013Z,2.07
2017-10-14T16:29:26.335Z,2.13
2017-10-14T16:31:57.933Z,2.00
2017-10-14T16:34:26.310Z,2.20
2017-10-14T16:36:54.709Z,2.53
2017-10-14T16:39:31.290Z,1.80
2017-10-14T16:41:59.652Z,2.33
2017-10-14T16:44:28.041Z,2.47
2017-10-14T16:46:57.554Z,2.00
2017-10-14T16:49:27.750Z,2.20
2017-10-14T16:51:56.335Z,2.00
2017-10-14T16:54:25.526Z,2.90
2017-10-14T16:56:57.154Z,2.37
2017-10-14T16:59:25.548Z,2.50
2017-10-14T17:01:53.937Z,7.47
2017-10-14T17:04:23.932Z,19.23
2017-10-14T17:06:54.906Z,8.40
2017-10-14T17:09:24.395Z,8.90
2017-10-14T17:11:53.832Z,9.13
2017-10-14T17:14:27.541Z,10.57
2017-10-14T17:16:57.958Z,6.63
2017-10-14T17:19:28.320Z,7.83
2017-10-14T17:21:57.550Z,6.10
2017-10-14T17:24:25.894Z,10.00
2017-10-14T17:26:54.246Z,8.60
2017-10-14T17:29:23.338Z,13.00
2017-10-14T17:31:51.738Z,9.47
2017-10-14T17:34:22.235Z,11.73
2017-10-14T17:36:50.876Z,9.50
2017-10-14T17:39:21.757Z,9.27
2017-10-14T17:41:53.729Z,12.87
2017-10-14T17:44:22.498Z,11.03
2017-10-14T17:46:55.243Z,18.00
2017-10-14T17:49:24.921Z,15.63
2017-10-14T17:51:57.318Z,15.93
2017-10-14T17:54:29.178Z,19.30
2017-10-14T17:56:57.603Z,17.23
2017-10-14T17:59:25.922Z,16.03
2017-10-14T18:01:54.255Z,15.57
2017-10-14T18:04:24.731Z,12.40
2017-10-14T18:06:53.087Z,12.17
2017-10-14T18:09:23.672Z,10.53
2017-10-14T18:11:53.537Z,9.60
2017-10-14T18:14:21.879Z,13.50
2017-10-14T18:16:53.319Z,12.07
2017-10-14T18:19:38.576Z,11.33
2017-10-14T18:22:09.098Z,10.00
2017-10-14T18:24:37.654Z,9.43
2017-10-14T18:27:06.811Z,10.30
2017-10-14T18:29:38.027Z,9.30
2017-10-14T18:32:07.480Z,9.17
2017-10-14T18:34:35.828Z,8.93
2017-10-14T18:37:04.940Z,8.37
2017-10-14T18:39:34.000Z,8.80
2017-10-14T18:42:02.482Z,7.47
2017-10-14T18:44:31.851Z,7.10
2017-10-14T18:47:00.195Z,6.50
2017-10-14T18:49:28.509Z,7.20
2017-10-14T18:52:01.064Z,7.10
2017-10-14T18:54:30.440Z,7.00
2017-10-14T18:57:02.656Z,6.03
2017-10-14T18:59:30.976Z,6.20
2017-10-14T19:02:00.038Z,6.47
2017-10-14T19:04:28.368Z,6.07
2017-10-14T19:06:56.740Z,6.00
2017-10-14T19:09:25.282Z,6.80
2017-10-14T19:11:55.704Z,7.20
2017-10-14T19:14:24.170Z,6.60
2017-10-14T19:16:55.036Z,6.80
2017-10-14T19:19:26.530Z,10.00
2017-10-14T19:21:55.031Z,6.53
2017-10-14T19:24:25.499Z,7.50
2017-10-14T19:27:00.041Z,7.23
2017-10-14T19:29:28.404Z,7.13
2017-10-14T19:31:57.708Z,7.50
2017-10-14T19:34:29.016Z,7.90
2017-10-14T19:36:57.538Z,8.63
2017-10-14T19:39:28.836Z,7.23
2017-10-14T19:41:57.868Z,8.00
2017-10-14T19:44:26.425Z,6.57
2017-10-14T19:46:55.786Z,7.50
2017-10-14T19:49:30.500Z,6.10
2017-10-14T19:51:59.496Z,6.33
2017-10-14T19:54:27.858Z,6.87
2017-10-14T19:56:56.187Z,6.63
2017-10-14T19:59:25.672Z,6.33
2017-10-14T20:01:54.965Z,6.70
2017-10-14T20:04:32.751Z,6.23
2017-10-14T20:07:01.929Z,6.33
2017-10-14T20:09:31.517Z,6.67
2017-10-14T20:12:52.418Z,6.53
2017-10-14T20:15:21.734Z,6.53
2017-10-14T20:17:52.132Z,7.37
2017-10-14T20:20:21.625Z,6.20
2017-10-14T20:22:50.918Z,7.03
2017-10-14T20:25:20.901Z,6.00
2017-10-14T20:27:50.208Z,6.13
2017-10-14T20:30:23.936Z,7.70
2017-10-14T20:33:01.576Z,6.90
2017-10-14T20:35:58.423Z,8.80
2017-10-14T20:38:26.874Z,7.17
2017-10-14T20:40:55.444Z,7.33
2017-10-14T20:43:23.971Z,9.37
2017-10-14T20:45:58.102Z,11.03
2017-10-14T20:48:28.763Z,10.30
2017-10-14T20:50:57.269Z,8.30
2017-10-14T20:53:25.836Z,7.50
2017-10-14T20:56:06.473Z,7.10
2017-10-14T20:58:38.033Z,6.73
2017-10-14T21:01:11.972Z,7.20
2017-10-14T21:03:40.438Z,6.70
2017-10-14T21:06:09.652Z,7.90
2017-10-14T21:08:39.426Z,8.23
2017-10-14T21:11:08.906Z,7.83
2017-10-14T21:13:41.879Z,6.80
2017-10-14T21:16:10.174Z,7.70
2017-10-14T21:18:40.621Z,7.00
2017-10-14T21:21:09.865Z,7.07
2017-10-14T21:23:39.770Z,7.10
2017-10-14T21:26:09.136Z,6.90
2017-10-14T21:28:37.512Z,6.80
2017-10-14T21:31:05.809Z,7.53
2017-10-14T21:33:34.123Z,7.33
2017-10-14T21:36:02.427Z,8.10
2017-10-14T21:38:30.741Z,7.00
2017-10-14T21:40:59.058Z,7.10
2017-10-14T21:43:30.318Z,7.80
2017-10-14T21:45:59.542Z,8.10
2017-10-14T21:48:28.004Z,13.47
2017-10-14T21:50:56.377Z,19.60
2017-10-14T21:53:24.687Z,12.30
2017-10-14T21:55:53.913Z,10.20
2017-10-14T21:58:23.801Z,7.87
2017-10-14T22:00:53.092Z,6.70
2017-10-14T22:03:26.463Z,7.30
2017-10-14T22:06:08.455Z,6.20
2017-10-14T22:08:38.825Z,6.87
2017-10-14T22:11:15.270Z,6.67
2017-10-14T22:13:44.278Z,6.23
2017-10-14T22:16:13.390Z,5.40
2017-10-14T22:18:42.617Z,5.10
2017-10-14T22:21:11.340Z,4.60
2017-10-14T22:23:45.753Z,5.80
2017-10-14T22:26:14.101Z,5.47
2017-10-14T22:28:42.402Z,4.73
2017-10-14T22:31:10.803Z,5.20
2017-10-14T22:33:41.332Z,5.67
2017-10-14T22:36:10.437Z,6.10
2017-10-14T22:38:38.764Z,5.47
2017-10-14T22:41:07.070Z,6.33
2017-10-14T22:43:35.417Z,5.60
2017-10-14T22:46:03.804Z,5.67
2017-10-14T22:48:32.622Z,5.30
2017-10-14T22:51:02.896Z,5.20
2017-10-14T22:53:33.171Z,5.37
2017-10-14T22:56:02.612Z,6.00
2017-10-14T22:58:31.005Z,5.37
2017-10-14T23:00:59.520Z,6.40
2017-10-14T23:03:28.885Z,7.60
2017-10-14T23:05:57.394Z,7.70
2017-10-14T23:08:26.963Z,6.10
2017-10-14T23:10:55.901Z,6.37
2017-10-14T23:13:27.897Z,6.20
2017-10-14T23:15:56.417Z,5.87
2017-10-14T23:18:24.906Z,6.93
2017-10-14T23:20:54.949Z,6.93
2017-10-14T23:23:24.961Z,5.73
2017-10-14T23:25:53.819Z,6.20
2017-10-14T23:28:22.099Z,5.43
2017-10-14T23:30:50.446Z,6.07
2017-10-14T23:33:18.735Z,5.83
2017-10-14T23:35:47.822Z,6.17
2017-10-14T23:38:16.938Z,6.17
2017-10-14T23:40:45.228Z,4.70
2017-10-14T23:43:13.544Z,5.30
2017-10-14T23:45:42.215Z,5.50
2017-10-14T23:48:10.568Z,5.63
2017-10-14T23:50:38.903Z,6.10
2017-10-14T23:53:07.198Z,6.10
2017-10-14T23:55:35.518Z,8.20
2017-10-14T23:58:03.815Z,7.50
